createdAt,value
2018-12-29T00:00:40.495Z,75.50
2018-12-29T00:02:46.235Z,75.59
2018-12-29T00:04:52.591Z,75.65
2018-12-29T00:07:17.481Z,75.62
2018-12-29T00:09:23.136Z,75.45
2018-12-29T00:11:41.878Z,75.61
2018-12-29T00:13:47.511Z,75.62
2018-12-29T00:15:53.885Z,75.62
2018-12-29T00:20:36.663Z,75.83
2018-12-29T00:22:42.734Z,75.50
2018-12-29T00:24:48.477Z,75.57
2018-12-29T00:26:54.277Z,75.71
2018-12-29T00:29:00.059Z,75.52
2018-12-29T00:31:05.790Z,75.62
2018-12-29T00:33:11.506Z,75.67
2018-12-29T00:35:17.421Z,75.70
2018-12-29T00:37:42.378Z,75.78
2018-12-29T00:39:48.618Z,75.74
2018-12-29T00:42:13.323Z,75.54
2018-12-29T00:44:30.304Z,75.74
2018-12-29T00:46:36.249Z,75.28
2018-12-29T00:48:45.070Z,75.24
2018-12-29T00:51:10.222Z,75.58
2018-12-29T00:53:15.865Z,75.59
2018-12-29T00:55:21.909Z,75.89
2018-12-29T00:57:29.589Z,76.31
2018-12-29T00:59:35.762Z,76.48
2018-12-29T01:01:41.508Z,76.41
2018-12-29T01:03:48.339Z,76.41
2018-12-29T01:05:54.115Z,76.42
2018-12-29T01:08:00.323Z,76.62
2018-12-29T01:10:07.027Z,76.75
2018-12-29T01:12:14.866Z,76.78
2018-12-29T01:14:20.687Z,76.70
2018-12-29T01:16:26.802Z,76.71
2018-12-29T01:18:34.600Z,76.68
2018-12-29T01:20:40.275Z,76.90
2018-12-29T01:22:45.926Z,77.11
2018-12-29T01:25:10.701Z,77.20
2018-12-29T01:27:16.452Z,77.06
2018-12-29T01:29:42.162Z,77.29
2018-12-29T01:31:47.872Z,77.40
2018-12-29T01:34:13.042Z,77.45
2018-12-29T01:36:19.100Z,77.42
2018-12-29T01:38:25.078Z,77.37
2018-12-29T01:40:50.416Z,77.30
2018-12-29T01:42:56.209Z,77.28
2018-12-29T01:45:02.703Z,77.22
2018-12-29T01:47:08.908Z,77.19
2018-12-29T01:49:14.620Z,77.11
2018-12-29T01:51:20.322Z,77.16
2018-12-29T01:53:26.054Z,77.07
2018-12-29T01:55:31.754Z,76.68
2018-12-29T01:57:37.402Z,76.73
2018-12-29T01:59:43.205Z,76.84
2018-12-29T02:01:48.992Z,76.89
2018-12-29T02:03:54.761Z,76.87
2018-12-29T02:06:00.498Z,76.85
2018-12-29T02:08:06.223Z,77.01
2018-12-29T02:10:12.298Z,77.13
2018-12-29T02:12:17.973Z,77.19
2018-12-29T02:14:24.030Z,77.13
2018-12-29T02:16:29.717Z,77.04
2018-12-29T02:18:54.469Z,76.99
2018-12-29T02:21:19.450Z,76.87
2018-12-29T02:23:25.144Z,76.58
2018-12-29T02:25:30.871Z,76.63
2018-12-29T02:27:36.588Z,76.93
2018-12-29T02:29:42.418Z,76.94
2018-12-29T02:31:48.411Z,76.91
2018-12-29T02:36:19.309Z,77.06
2018-12-29T02:38:25.021Z,77.06
2018-12-29T02:40:30.969Z,77.03
2018-12-29T02:42:37.050Z,76.95
2018-12-29T02:44:42.681Z,77.01
2018-12-29T02:46:52.284Z,77.04
2018-12-29T02:49:17.282Z,77.25
2018-12-29T02:51:23.264Z,77.33
2018-12-29T02:53:47.969Z,77.47
2018-12-29T02:58:21.711Z,77.49
2018-12-29T03:00:46.418Z,77.45
2018-12-29T03:02:52.553Z,77.23
2018-12-29T03:04:58.474Z,77.23
2018-12-29T03:07:04.603Z,77.43
2018-12-29T03:09:10.306Z,77.54
2018-12-29T03:11:16.544Z,77.65
2018-12-29T03:13:22.319Z,77.79
2018-12-29T03:15:28.349Z,77.97
2018-12-29T03:17:34.259Z,78.02
2018-12-29T03:19:40.020Z,78.02
2018-12-29T03:21:47.503Z,77.88
2018-12-29T03:23:53.325Z,77.79
2018-12-29T03:25:59.247Z,77.60
2018-12-29T03:28:05.128Z,77.74
2018-12-29T03:30:10.908Z,77.92
2018-12-29T03:32:16.625Z,78.09
2018-12-29T03:34:22.753Z,78.02
2018-12-29T03:36:47.858Z,77.91
2018-12-29T03:38:53.600Z,78.05
2018-12-29T03:41:18.404Z,78.13
2018-12-29T03:43:24.156Z,78.38
2018-12-29T03:45:49.523Z,78.48
2018-12-29T03:47:55.835Z,78.59
2018-12-29T03:50:01.998Z,78.69
2018-12-29T03:52:07.755Z,78.65
2018-12-29T03:54:13.473Z,78.31
2018-12-29T03:56:19.331Z,78.53
2018-12-29T03:58:24.930Z,78.81
2018-12-29T04:00:49.691Z,79.06
2018-12-29T04:02:55.513Z,79.14
2018-12-29T04:05:01.389Z,79.14
2018-12-29T04:07:07.524Z,79.03
2018-12-29T04:09:49.920Z,79.02
2018-12-29T04:11:55.888Z,79.03
2018-12-29T04:14:02.212Z,79.30
2018-12-29T04:16:08.198Z,79.39
2018-12-29T04:18:13.794Z,79.56
2018-12-29T04:20:19.639Z,79.59
2018-12-29T04:22:25.977Z,79.77
2018-12-29T04:24:32.147Z,79.91
2018-12-29T04:26:37.811Z,80.06
2018-12-29T04:28:47.043Z,80.17
2018-12-29T04:30:52.713Z,80.17
2018-12-29T04:32:58.866Z,80.19
2018-12-29T04:35:04.996Z,80.29
2018-12-29T04:37:11.212Z,80.46
2018-12-29T04:39:17.286Z,80.53
2018-12-29T04:41:23.121Z,80.70
2018-12-29T04:43:29.031Z,80.79
2018-12-29T04:45:34.793Z,80.87
2018-12-29T04:47:40.741Z,80.87
2018-12-29T04:49:46.660Z,80.98
2018-12-29T04:51:52.374Z,81.13
2018-12-29T04:53:58.678Z,81.24
2018-12-29T04:56:23.425Z,81.25
2018-12-29T04:58:41.096Z,81.31
2018-12-29T05:00:47.216Z,81.24
2018-12-29T05:02:52.972Z,81.24
2018-12-29T05:04:58.732Z,81.29
2018-12-29T05:07:04.475Z,81.38
2018-12-29T05:09:10.390Z,81.47
2018-12-29T05:11:16.483Z,81.52
2018-12-29T05:13:22.227Z,81.54
2018-12-29T05:15:47.163Z,81.39
2018-12-29T05:18:04.963Z,81.18
2018-12-29T05:20:29.724Z,81.37
2018-12-29T05:22:35.615Z,81.63
2018-12-29T05:24:41.559Z,81.73
2018-12-29T05:26:47.613Z,81.93
2018-12-29T05:28:53.367Z,82.01
2018-12-29T05:30:58.974Z,82.06
2018-12-29T05:33:04.846Z,82.06
2018-12-29T05:35:10.526Z,82.07
2018-12-29T05:37:16.354Z,82.19
2018-12-29T05:39:22.257Z,82.19
2018-12-29T05:41:28.037Z,82.28
2018-12-29T05:43:33.767Z,82.42
2018-12-29T05:45:58.614Z,82.50
2018-12-29T05:48:04.416Z,82.62
2018-12-29T05:50:10.336Z,82.72
2018-12-29T05:52:16.182Z,82.75
2018-12-29T05:54:21.965Z,82.65
2018-12-29T05:56:27.686Z,82.62
2018-12-29T05:58:33.468Z,82.69
2018-12-29T06:00:39.194Z,82.77
2018-12-29T06:02:45.150Z,82.79
2018-12-29T06:04:51.022Z,82.85
2018-12-29T06:06:56.732Z,82.81
2018-12-29T06:09:04.168Z,82.86
2018-12-29T06:11:10.250Z,82.91
2018-12-29T06:13:15.925Z,82.97
2018-12-29T06:15:21.605Z,82.96
2018-12-29T06:17:46.377Z,82.87
2018-12-29T06:19:52.269Z,82.86
2018-12-29T06:21:57.929Z,82.89
2018-12-29T06:24:03.657Z,82.98
2018-12-29T06:26:09.333Z,83.05
2018-12-29T06:28:15.107Z,83.13
2018-12-29T06:30:20.787Z,83.16
2018-12-29T06:32:26.546Z,83.22
2018-12-29T06:34:32.370Z,83.26
2018-12-29T06:36:38.648Z,83.31
2018-12-29T06:38:44.429Z,83.32
2018-12-29T06:40:50.225Z,83.37
2018-12-29T06:42:55.916Z,83.42
2018-12-29T06:45:01.651Z,83.49
2018-12-29T06:47:07.438Z,83.51
2018-12-29T06:49:13.247Z,83.51
2018-12-29T06:51:18.935Z,83.44
2018-12-29T06:53:24.893Z,83.44
2018-12-29T06:55:31.582Z,83.46
2018-12-29T06:57:37.524Z,83.50
2018-12-29T06:59:43.143Z,83.46
2018-12-29T07:01:48.813Z,83.42
2018-12-29T07:03:55.067Z,83.42
2018-12-29T07:06:21.263Z,83.49
2018-12-29T07:08:26.948Z,83.40
2018-12-29T07:10:32.587Z,83.39
2018-12-29T07:13:14.964Z,83.48
2018-12-29T07:15:21.167Z,83.45
2018-12-29T07:17:28.428Z,83.55
2018-12-29T07:19:34.279Z,83.61
2018-12-29T07:21:41.100Z,83.56
2018-12-29T07:23:47.220Z,83.62
2018-12-29T07:25:53.013Z,83.68
2018-12-29T07:27:58.723Z,83.70
2018-12-29T07:30:04.993Z,83.76
2018-12-29T07:32:10.784Z,83.83
2018-12-29T07:34:16.825Z,83.78
2018-12-29T07:36:24.951Z,83.78
2018-12-29T07:38:30.614Z,83.70
2018-12-29T07:40:36.238Z,83.66
2018-12-29T07:42:42.025Z,83.61
2018-12-29T07:44:47.649Z,83.42
2018-12-29T07:46:53.404Z,83.39
2018-12-29T07:48:59.095Z,83.49
2018-12-29T07:51:04.924Z,83.52
2018-12-29T07:53:10.646Z,83.47
2018-12-29T07:55:16.361Z,83.51
2018-12-29T07:57:22.781Z,83.66
2018-12-29T07:59:28.740Z,83.75
2018-12-29T08:01:34.473Z,83.74
2018-12-29T08:03:40.097Z,83.75
2018-12-29T08:05:46.168Z,83.77
2018-12-29T08:08:10.870Z,83.76
2018-12-29T08:10:16.609Z,83.77
2018-12-29T08:13:00.342Z,83.82
2018-12-29T08:15:06.325Z,83.82
2018-12-29T08:17:12.018Z,83.76
2018-12-29T08:19:17.889Z,83.66
2018-12-29T08:21:23.907Z,83.69
2018-12-29T08:23:30.264Z,83.63
2018-12-29T08:25:36.284Z,83.60
2018-12-29T08:27:42.520Z,83.51
2018-12-29T08:29:48.424Z,83.50
2018-12-29T08:32:13.207Z,83.51
2018-12-29T08:34:19.004Z,83.47
2018-12-29T08:36:24.852Z,83.42
2018-12-29T08:38:30.656Z,83.33
2018-12-29T08:40:55.200Z,82.95
2018-12-29T08:43:00.820Z,82.65
2018-12-29T08:45:06.521Z,82.61
2018-12-29T08:47:12.215Z,82.26
2018-12-29T08:49:18.442Z,81.81
2018-12-29T08:53:58.758Z,82.04
2018-12-29T08:56:04.443Z,82.22
2018-12-29T08:58:10.154Z,82.28
2018-12-29T09:00:15.965Z,82.27
2018-12-29T09:02:22.006Z,82.12
2018-12-29T09:04:27.651Z,82.17
2018-12-29T09:06:33.831Z,82.30
2018-12-29T09:08:39.581Z,82.43
2018-12-29T09:11:04.429Z,82.46
2018-12-29T09:13:10.429Z,82.19
2018-12-29T09:15:16.651Z,81.84
2018-12-29T09:17:23.026Z,81.95
2018-12-29T09:19:28.769Z,82.09
2018-12-29T09:21:34.611Z,82.21
2018-12-29T09:23:59.414Z,82.20
2018-12-29T09:26:05.441Z,82.09
2018-12-29T09:28:11.183Z,81.89
2018-12-29T09:30:17.354Z,81.66
2018-12-29T09:32:23.431Z,81.72
2018-12-29T09:34:29.137Z,81.85
2018-12-29T09:36:54.031Z,81.95
2018-12-29T09:39:00.125Z,82.04
2018-12-29T09:41:05.998Z,82.12
2018-12-29T09:43:11.733Z,82.06
2018-12-29T09:45:17.579Z,82.19
2018-12-29T09:47:24.438Z,82.23
2018-12-29T09:49:30.188Z,82.12
2018-12-29T09:51:36.012Z,81.94
2018-12-29T09:53:41.792Z,81.73
2018-12-29T09:55:47.419Z,81.66
2018-12-29T09:58:12.253Z,81.75
2018-12-29T10:02:52.400Z,81.85
2018-12-29T10:05:17.216Z,81.97
2018-12-29T10:09:53.057Z,81.86
2018-12-29T10:11:58.848Z,81.64
2018-12-29T10:14:26.511Z,81.49
2018-12-29T10:16:32.314Z,81.20
2018-12-29T10:18:38.229Z,81.27
2018-12-29T10:20:43.932Z,81.43
2018-12-29T10:22:50.026Z,81.25
2018-12-29T10:24:57.121Z,81.09
2018-12-29T10:27:03.201Z,80.76
2018-12-29T10:29:08.921Z,80.67
2018-12-29T10:31:33.628Z,80.73
2018-12-29T10:33:39.426Z,81.06
2018-12-29T10:35:45.077Z,81.15
2018-12-29T10:37:50.799Z,81.02
2018-12-29T10:39:56.462Z,80.76
2018-12-29T10:42:02.162Z,80.58
2018-12-29T10:44:08.221Z,80.60
2018-12-29T10:46:14.276Z,80.58
2018-12-29T10:48:19.944Z,80.46
2018-12-29T10:50:28.662Z,80.41
2018-12-29T10:52:34.302Z,80.43
2018-12-29T10:54:39.994Z,80.16
2018-12-29T10:56:45.612Z,80.12
2018-12-29T10:58:51.267Z,79.90
2018-12-29T11:00:57.208Z,79.69
2018-12-29T11:03:02.900Z,79.73
2018-12-29T11:05:09.423Z,79.79
2018-12-29T11:07:15.746Z,79.83
2018-12-29T11:09:21.573Z,79.75
2018-12-29T11:11:27.328Z,79.59
2018-12-29T11:13:33.026Z,79.51
2018-12-29T11:15:38.734Z,79.09
2018-12-29T11:17:46.348Z,79.24
2018-12-29T11:19:52.128Z,79.23
2018-12-29T11:21:58.122Z,78.95
2018-12-29T11:24:03.838Z,78.59
2018-12-29T11:26:09.793Z,78.18
2018-12-29T11:28:34.915Z,77.73
2018-12-29T11:30:41.010Z,76.88
2018-12-29T11:32:46.784Z,77.30
2018-12-29T11:34:52.554Z,77.06
2018-12-29T11:36:59.139Z,75.73
2018-12-29T11:39:06.636Z,76.21
2018-12-29T11:41:12.485Z,76.60
2018-12-29T11:43:18.157Z,76.25
2018-12-29T11:45:23.811Z,76.22
2018-12-29T11:47:50.019Z,77.18
2018-12-29T11:49:56.243Z,76.60
2018-12-29T11:52:03.457Z,76.07
2018-12-29T11:56:25.556Z,75.83
2018-12-29T11:58:33.134Z,76.19
2018-12-29T12:00:39.204Z,76.73
2018-12-29T12:02:44.992Z,77.08
2018-12-29T12:04:50.667Z,77.33
2018-12-29T12:06:56.402Z,76.82
2018-12-29T12:09:02.085Z,77.14
2018-12-29T12:11:10.974Z,77.50
2018-12-29T12:13:18.055Z,77.40
2018-12-29T12:15:23.743Z,76.60
2018-12-29T12:17:48.612Z,76.43
2018-12-29T12:19:54.658Z,76.12
2018-12-29T12:22:03.761Z,76.31
2018-12-29T12:24:09.786Z,76.28
2018-12-29T12:26:16.723Z,76.58
2018-12-29T12:28:22.947Z,76.13
2018-12-29T12:30:29.850Z,75.40
2018-12-29T12:32:56.212Z,76.17
2018-12-29T12:35:02.407Z,75.83
2018-12-29T12:37:08.205Z,75.69
2018-12-29T12:39:14.028Z,75.79
2018-12-29T12:41:19.856Z,75.66
2018-12-29T12:43:25.623Z,75.66
2018-12-29T12:45:31.694Z,75.72
2018-12-29T12:47:39.179Z,75.98
2018-12-29T12:49:45.225Z,75.88
2018-12-29T12:52:09.904Z,75.44
2018-12-29T12:54:15.962Z,75.04
2018-12-29T12:56:35.740Z,74.55
2018-12-29T12:58:48.249Z,74.59
2018-12-29T13:00:54.328Z,73.94
2018-12-29T13:03:02.779Z,73.98
2018-12-29T13:05:08.409Z,74.52
2018-12-29T13:07:14.383Z,74.79
2018-12-29T13:09:20.220Z,74.67
2018-12-29T13:11:25.837Z,74.63
2018-12-29T13:13:52.324Z,74.58
2018-12-29T13:16:01.655Z,73.70
2018-12-29T13:18:19.165Z,74.30
2018-12-29T13:20:24.880Z,74.41
2018-12-29T13:22:30.499Z,74.61
2018-12-29T13:24:36.418Z,74.76
2018-12-29T13:26:42.550Z,74.55
2018-12-29T13:28:48.678Z,74.36
2018-12-29T13:30:55.340Z,74.55
2018-12-29T13:33:01.027Z,74.12
2018-12-29T13:35:06.719Z,74.43
2018-12-29T13:39:42.240Z,75.30
2018-12-29T13:41:48.757Z,74.60
2018-12-29T13:43:54.399Z,74.49
2018-12-29T13:46:00.346Z,74.06
2018-12-29T13:48:06.239Z,73.43
2018-12-29T13:50:12.146Z,74.38
2018-12-29T13:52:17.919Z,74.58
2018-12-29T13:54:42.853Z,75.18
2018-12-29T13:56:48.654Z,74.97
2018-12-29T13:58:56.936Z,74.89
2018-12-29T14:01:03.148Z,75.01
2018-12-29T14:03:08.838Z,74.76
2018-12-29T14:05:14.602Z,75.18
2018-12-29T14:07:20.477Z,75.42
2018-12-29T14:09:26.758Z,75.68
2018-12-29T14:11:32.845Z,75.78
2018-12-29T14:13:38.534Z,75.69
2018-12-29T14:16:03.594Z,75.52
2018-12-29T14:18:09.695Z,75.50
2018-12-29T14:20:15.919Z,75.29
2018-12-29T14:22:21.689Z,75.96
2018-12-29T14:24:29.008Z,76.23
2018-12-29T14:26:55.770Z,76.51
2018-12-29T14:29:02.780Z,76.50
2018-12-29T14:31:08.607Z,76.35
2018-12-29T14:33:20.568Z,76.43
2018-12-29T14:35:26.766Z,76.87
2018-12-29T14:37:32.553Z,76.96
2018-12-29T14:39:58.105Z,76.38
2018-12-29T14:42:15.349Z,76.72
2018-12-29T14:44:23.329Z,76.89
2018-12-29T14:46:29.297Z,76.90
2018-12-29T14:48:36.325Z,76.39
2018-12-29T14:50:42.045Z,76.67
2018-12-29T14:52:47.803Z,77.04
2018-12-29T14:54:55.440Z,76.82
2018-12-29T14:57:01.216Z,76.72
2018-12-29T14:59:07.687Z,77.14
2018-12-29T15:01:14.484Z,77.04
2018-12-29T15:03:21.081Z,76.50
2018-12-29T15:05:26.817Z,76.85
2018-12-29T15:07:32.882Z,77.27
2018-12-29T15:09:38.853Z,77.04
2018-12-29T15:11:45.211Z,77.21
2018-12-29T15:13:51.595Z,77.45
2018-12-29T15:15:57.625Z,77.74
2018-12-29T15:18:03.397Z,77.38
2018-12-29T15:20:09.372Z,76.64
2018-12-29T15:22:15.307Z,76.79
2018-12-29T15:24:21.565Z,76.51
2018-12-29T15:26:27.615Z,76.71
2018-12-29T15:28:52.810Z,77.22
2018-12-29T15:30:58.551Z,77.10
2018-12-29T15:33:04.587Z,77.78
2018-12-29T15:35:10.416Z,77.73
2018-12-29T15:37:16.486Z,78.26
2018-12-29T15:39:22.126Z,78.82
2018-12-29T15:41:28.195Z,79.17
2018-12-29T15:43:34.254Z,79.37
2018-12-29T15:45:39.936Z,79.47
2018-12-29T15:47:45.950Z,80.37
2018-12-29T15:49:51.601Z,81.17
2018-12-29T15:52:16.724Z,81.42
2018-12-29T15:54:22.789Z,82.02
2018-12-29T15:56:28.477Z,82.32
2018-12-29T15:58:34.907Z,82.67
2018-12-29T16:00:41.294Z,83.01
2018-12-29T16:03:06.097Z,83.45
2018-12-29T16:05:14.872Z,83.87
2018-12-29T16:07:20.812Z,83.99
2018-12-29T16:09:28.677Z,84.32
2018-12-29T16:11:34.986Z,84.50
2018-12-29T16:13:59.704Z,84.55
2018-12-29T16:16:05.510Z,84.57
2018-12-29T16:18:12.371Z,84.73
2018-12-29T16:20:18.085Z,85.06
2018-12-29T16:22:43.100Z,85.28
2018-12-29T16:24:48.972Z,85.51
2018-12-29T16:26:55.117Z,86.03
2018-12-29T16:29:01.295Z,86.32
2018-12-29T16:31:26.395Z,86.67
2018-12-29T16:33:32.912Z,86.69
2018-12-29T16:35:42.843Z,86.98
2018-12-29T16:37:48.689Z,87.27
2018-12-29T16:40:13.350Z,87.17
2018-12-29T16:42:19.265Z,87.33
2018-12-29T16:44:25.164Z,87.32
2018-12-29T16:46:50.269Z,87.52
2018-12-29T16:48:56.429Z,87.73
2018-12-29T16:51:02.221Z,88.00
2018-12-29T16:53:08.120Z,88.16
2018-12-29T16:55:35.282Z,88.22
2018-12-29T16:57:42.249Z,88.16
2018-12-29T16:59:48.255Z,88.14
2018-12-29T17:01:54.319Z,88.20
2018-12-29T17:04:00.310Z,88.15
2018-12-29T17:06:27.022Z,88.09
2018-12-29T17:08:34.831Z,88.13
2018-12-29T17:10:42.592Z,88.02
2018-12-29T17:12:48.365Z,87.88
2018-12-29T17:14:54.200Z,87.80
2018-12-29T17:17:00.002Z,87.51
2018-12-29T17:19:05.907Z,87.46
2018-12-29T17:21:11.742Z,87.51
2018-12-29T17:23:17.455Z,87.59
2018-12-29T17:25:23.442Z,87.44
2018-12-29T17:27:29.244Z,87.39
2018-12-29T17:29:36.324Z,87.22
2018-12-29T17:31:44.076Z,87.10
2018-12-29T17:33:49.854Z,87.22
2018-12-29T17:35:56.035Z,87.24
2018-12-29T17:38:05.395Z,87.31
2018-12-29T17:40:13.008Z,87.30
2018-12-29T17:42:40.314Z,87.32
2018-12-29T17:44:46.934Z,87.09
2018-12-29T17:46:53.685Z,87.01
2018-12-29T17:49:00.101Z,87.00
2018-12-29T17:51:05.818Z,86.74
2018-12-29T17:53:12.078Z,86.78
2018-12-29T17:55:17.710Z,86.85
2018-12-29T17:57:43.392Z,86.90
2018-12-29T17:59:49.462Z,86.81
2018-12-29T18:01:55.407Z,86.28
2018-12-29T18:04:04.661Z,86.05
2018-12-29T18:06:11.468Z,86.12
2018-12-29T18:08:17.445Z,86.23
2018-12-29T18:10:23.320Z,86.38
2018-12-29T18:12:29.372Z,86.70
2018-12-29T18:14:35.269Z,86.55
2018-12-29T18:17:00.176Z,86.50
2018-12-29T18:19:06.453Z,86.57
2018-12-29T18:21:12.306Z,86.73
2018-12-29T18:23:18.257Z,86.67
2018-12-29T18:25:24.592Z,86.41
2018-12-29T18:27:50.051Z,86.57
2018-12-29T18:29:58.166Z,86.71
2018-12-29T18:32:16.311Z,86.61
2018-12-29T18:34:22.224Z,86.75
2018-12-29T18:36:28.314Z,86.67
2018-12-29T18:38:41.951Z,86.62
2018-12-29T18:40:49.524Z,86.45
2018-12-29T18:42:55.880Z,86.53
2018-12-29T18:45:03.433Z,86.21
2018-12-29T18:47:13.041Z,85.87
2018-12-29T18:49:38.905Z,85.91
2018-12-29T18:51:44.942Z,86.04
2018-12-29T18:54:11.507Z,86.17
2018-12-29T18:56:18.901Z,86.00
2018-12-29T18:58:25.914Z,86.19
2018-12-29T19:00:51.486Z,86.24
2018-12-29T19:03:19.685Z,86.37
2018-12-29T19:05:27.640Z,85.94
2018-12-29T19:07:33.364Z,85.68
2018-12-29T19:09:39.363Z,85.62
2018-12-29T19:11:46.554Z,85.90
2018-12-29T19:13:53.886Z,85.93
2018-12-29T19:16:00.142Z,86.18
2018-12-29T19:18:06.432Z,86.54
2018-12-29T19:20:12.558Z,86.74
2018-12-29T19:22:18.257Z,86.69
2018-12-29T19:24:23.905Z,86.37
2018-12-29T19:26:48.618Z,85.75
2018-12-29T19:29:08.042Z,85.56
2018-12-29T19:31:14.348Z,85.78
2018-12-29T19:33:20.790Z,85.71
2018-12-29T19:35:27.046Z,85.65
2018-12-29T19:37:51.958Z,85.59
2018-12-29T19:40:09.088Z,86.04
2018-12-29T19:42:15.164Z,85.79
2018-12-29T19:44:22.739Z,85.66
2018-12-29T19:46:28.766Z,85.45
2018-12-29T19:48:53.519Z,85.39
2018-12-29T19:51:00.504Z,85.52
2018-12-29T19:53:26.003Z,85.39
2018-12-29T19:55:32.132Z,85.46
2018-12-29T19:57:38.697Z,85.38
2018-12-29T19:59:44.805Z,85.30
2018-12-29T20:01:50.980Z,85.61
2018-12-29T20:03:57.825Z,85.66
2018-12-29T20:06:10.997Z,84.96
2018-12-29T20:10:49.477Z,84.96
2018-12-29T20:12:55.225Z,84.81
2018-12-29T20:15:01.050Z,84.11
2018-12-29T20:17:08.730Z,84.50
2018-12-29T20:19:17.693Z,84.28
2018-12-29T20:21:43.208Z,84.26
2018-12-29T20:23:50.123Z,84.26
2018-12-29T20:25:56.432Z,84.06
2018-12-29T20:28:21.378Z,83.60
2018-12-29T20:30:27.911Z,84.02
2018-12-29T20:32:35.780Z,83.80
2018-12-29T20:34:47.342Z,83.56
2018-12-29T20:36:57.878Z,83.51
2018-12-29T20:39:25.173Z,83.30
2018-12-29T20:41:33.321Z,83.57
2018-12-29T20:43:41.044Z,84.23
2018-12-29T20:46:06.282Z,84.52
2018-12-29T20:48:24.846Z,84.77
2018-12-29T20:50:31.276Z,84.05
2018-12-29T20:52:37.681Z,83.80
2018-12-29T20:55:07.804Z,83.56
2018-12-29T21:04:40.529Z,82.76
2018-12-29T21:06:47.921Z,82.49
2018-12-29T21:11:52.614Z,82.16
2018-12-29T21:14:03.671Z,81.95
2018-12-29T21:16:30.398Z,81.79
2018-12-29T21:18:37.730Z,81.56
2018-12-29T21:21:03.219Z,81.84
2018-12-29T21:23:10.739Z,81.51
2018-12-29T21:25:18.163Z,80.40
2018-12-29T21:27:30.967Z,81.04
2018-12-29T21:29:56.525Z,80.68
2018-12-29T21:32:26.349Z,80.52
2018-12-29T21:34:20.036Z,80.58
2018-12-29T21:36:26.360Z,79.67
2018-12-29T21:38:34.684Z,79.11
2018-12-29T21:40:41.623Z,79.08
2018-12-29T21:42:49.629Z,77.73
2018-12-29T21:45:16.602Z,77.16
2018-12-29T21:47:24.745Z,77.49
2018-12-29T21:50:08.965Z,77.41
2018-12-29T21:52:16.466Z,76.58
2018-12-29T21:54:23.454Z,76.77
2018-12-29T21:57:10.227Z,76.38
2018-12-29T21:59:16.694Z,76.21
2018-12-29T22:01:23.463Z,74.29
2018-12-29T22:03:30.173Z,74.62
2018-12-29T22:05:36.225Z,74.32
2018-12-29T22:07:42.000Z,74.23
2018-12-29T22:09:47.728Z,73.36
2018-12-29T22:11:53.971Z,73.21
2018-12-29T22:14:06.679Z,73.60
2018-12-29T22:16:13.855Z,73.40
2018-12-29T22:18:20.681Z,71.39
2018-12-29T22:20:33.246Z,71.76
2018-12-29T22:22:53.239Z,72.07
2018-12-29T22:25:06.483Z,72.57
2018-12-29T22:27:13.310Z,72.62
2018-12-29T22:29:20.989Z,73.01
2018-12-29T22:31:28.095Z,73.27
2018-12-29T22:33:33.937Z,72.62
2018-12-29T22:35:59.177Z,72.48
2018-12-29T22:38:24.444Z,72.35
2018-12-29T22:40:31.895Z,71.57
2018-12-29T22:42:37.906Z,72.15
2018-12-29T22:47:24.683Z,70.86
2018-12-29T22:49:32.567Z,71.93
2018-12-29T22:51:39.374Z,71.76
2018-12-29T22:53:45.051Z,71.77
2018-12-29T22:55:56.349Z,71.96
2018-12-29T22:58:08.586Z,71.33
2018-12-29T23:00:21.665Z,70.78
2018-12-29T23:02:27.976Z,71.26
2018-12-29T23:04:52.192Z,71.92
2018-12-29T23:06:58.476Z,71.45
2018-12-29T23:09:09.574Z,71.41
2018-12-29T23:11:15.474Z,71.42
2018-12-29T23:13:21.193Z,71.22
2018-12-29T23:15:27.371Z,70.17
2018-12-29T23:17:33.935Z,69.22
2018-12-29T23:19:39.555Z,70.34
2018-12-29T23:21:45.640Z,69.57
2018-12-29T23:23:53.348Z,68.53
2018-12-29T23:25:59.686Z,69.60
2018-12-29T23:28:06.541Z,68.61
2018-12-29T23:30:12.306Z,69.32
2018-12-29T23:32:20.990Z,68.75
2018-12-29T23:34:26.614Z,68.02
2018-12-29T23:36:32.571Z,68.44
2018-12-29T23:38:38.387Z,68.35
2018-12-29T23:41:03.101Z,68.68
2018-12-29T23:43:08.700Z,69.04
2018-12-29T23:47:49.231Z,68.51
2018-12-29T23:49:55.374Z,68.42
2018-12-29T23:52:21.945Z,68.53
2018-12-29T23:54:31.212Z,68.83
2018-12-29T23:56:37.095Z,69.36
